To NAV CANADA Home Page Login to a new session Search on AWWS site Feedback and Comments Disclaimer Vers la page française équivalente Tips FAQ What's new on the site To the Forecasts and Observations / NOTAM section To "File a Flight Plan" website Publications and other links Update of the User's profile FIC Telephone Numbers My Weather Data Folder Route Weather Data Regional Weather Data Local Weather Data To the Forecasts and Observations / NOTAM section
Request Generated 02/24/2017 at 03:37:44 UTC . Weather information available at that time is displayed.

METAR/TAF

GOOSE BAY/NL    

SPECI CYYR 240317Z 05007KT 10SM -SN FEW017 OVC022 M05/M07 A2967 RMK SC2SC6 SLP050=
METAR CYYR 240300Z 05007KT 10SM -SN SCT022 OVC027 M05/M07 A2967 RMK SC3SC5 SLP050=
METAR CYYR 240200Z 05010KT 10SM -SN BKN027 BKN034 OVC058 M05/M07 A2968 RMK SC5SC2SC1 SLP054=
METAR CYYR 240100Z 06007KT 8SM -SN BKN040 OVC050 M05/M07 A2969 RMK SC5SC3 SLP057=

TAF AMD CYYR 240307Z 2403/2424 05008KT 6SM -SN SCT015 OVC025 TEMPO
2403/2411 2SM -SN SCT010 OVC015
BECMG 2409/2411 04012G22KT
FM241100 04012G22KT 3SM -SHSN BKN015 OVC030 TEMPO 2411/2415 P6SM
NSW SCT015 BKN030
FM241500 04010KT 6SM -SHSN BKN020 OVC050
BECMG 2422/2424 04005KT
RMK NXT FCST BY 240600Z=
Your time UTC time
Weather data provided by Environment Canada and NAV CANADA